Latest Weather Observations for Alva Beach

IDQ60801

Issued at 1:32 pm EST Monday 26 September 2016 (issued every 30 minutes, with the page automatically refreshed every 10 minutes)

About weather observations | Map of weather stations | Latest weather observations for QLD | Other Formats
Station Details ID: 033295 Name: ALVA BEACH Lat: -19.46 Lon: 147.48 Height: 7.5 m
Data from the previous 72 hours. | See also: Recent months at Alva Beach
Date/Time
EST
Temp
°C
App
Temp
°C
Dew
Point
°C
Rel
Hum
%
Delta-T
°C
Wind Press
QNH
hPa
Press
MSL
hPa
Rain since
9am
mm
Dir  Spd
km/h
Gust
km/h
Spd
kts
Gust
kts
26/01:30pm 28.5 28.2 19.2 57 6.0 NNE 19 20 10 11 1010.2 1010.2 0.0
26/01:00pm 28.5 28.2 19.2 57 6.0 NE 19 20 10 11 1010.6 1010.6 0.0
26/12:30pm 28.2 28.3 19.2 58 5.8 NNE 17 20 9 11 1011.1 1011.1 0.0
26/12:00pm 28.0 28.4 19.8 61 5.4 NE 17 20 9 11 1011.6 1011.6 0.0
26/11:30am 28.2 28.4 19.4 59 5.7 NE 17 20 9 11 1012.1 1012.1 0.0
26/11:00am 28.1 28.0 18.8 57 6.0 ENE 17 19 9 10 1012.5 1012.5 0.0
26/10:30am 28.7 30.3 19.9 59 5.8 ENE 11 17 6 9 1012.9 1012.9 0.0
26/10:00am 29.7 30.0 16.1 43 8.4 SSW 9 17 5 9 1013.0 1013.0 0.0
26/09:30am 28.8 29.4 17.7 51 7.0 SSE 11 19 6 10 1013.3 1013.3 0.0
26/09:00am 28.0 29.1 18.1 55 6.3 S 9 17 5 9 1013.5 1013.5 0.0
26/08:30am 26.9 28.9 20.0 66 4.5 SW 9 15 5 8 1013.4 1013.4 0.0
26/08:00am 25.8 27.8 20.8 74 3.3 SW 11 17 6 9 1013.3 1013.3 0.0
26/07:30am 24.3 27.9 22.4 89 1.3 SW 7 11 4 6 1013.1 1013.1 0.0
26/07:00am 22.6 25.8 21.6 94 0.7 SW 7 9 4 5 1012.9 1012.9 0.0
26/06:30am 21.6 24.4 20.8 95 0.5 SSW 7 9 4 5 1012.6 1012.6 0.0
26/06:00am 21.3 24.1 20.5 95 0.5 SW 6 6 3 3 1012.3 1012.3 0.0
26/05:30am 21.4 24.0 20.4 94 0.6 SSW 7 9 4 5 1011.9 1011.9 0.0
26/05:00am 21.7 24.4 20.7 94 0.6 SSW 7 9 4 5 1011.6 1011.6 0.0
26/04:30am 22.0 25.0 20.8 93 0.8 SSW 6 7 3 4 1011.3 1011.3 0.0
26/04:00am 22.2 25.0 20.8 92 0.9 SSW 7 9 4 5 1011.1 1011.1 0.0
26/03:30am 22.4 25.8 20.9 91 1.0 SW 4 7 2 4 1011.1 1011.1 0.0
26/03:00am 22.9 26.0 21.0 89 1.2 W 6 9 3 5 1011.0 1011.0 0.0
26/02:30am 23.5 26.1 20.0 81 2.3 W 6 7 3 4 1011.1 1011.1 0.0
26/02:00am 24.5 27.4 21.0 81 2.3 NNW 7 9 4 5 1011.2 1011.2 0.0
26/01:30am 24.7 28.0 20.8 79 2.6 WNW 4 11 2 6 1011.5 1011.5 0.0
26/01:00am 24.8 27.8 20.9 79 2.6 W 6 11 3 6 1011.8 1011.8 0.0
26/12:30am 25.3 28.5 21.2 78 2.7 WNW 6 11 3 6 1011.9 1011.9 0.0
26/12:00am 25.2 28.3 21.1 78 2.7 NW 6 11 3 6 1012.2 1012.2 0.0
 
Date/Time
EST
Temp
°C
App
Temp
°C
Dew
Point
°C
Rel
Hum
%
Delta-T
°C
Wind Press
QNH
hPa
Press
MSL
hPa
Rain since
9am
mm
Dir  Spd
km/h
Gust
km/h
Spd
kts
Gust
kts
25/11:30pm 25.2 28.0 20.9 77 2.8 NW 7 11 4 6 1012.3 1012.3 0.0
25/11:00pm 25.5 28.6 21.4 78 2.7 WNW 7 13 4 7 1012.4 1012.4 0.0
25/10:30pm 25.2 28.1 21.1 78 2.7 NNW 7 17 4 9 1012.2 1012.2 0.0
25/10:00pm 25.3 27.6 21.4 79 2.6 NNW 11 17 6 9 1012.0 1012.0 0.0
25/09:30pm 25.2 27.1 21.3 79 2.6 NNW 13 19 7 10 1011.8 1011.8 0.0
25/09:00pm 25.2 27.4 21.1 78 2.7 NNW 11 19 6 10 1011.6 1011.6 0.0
25/08:30pm 25.3 27.5 21.2 78 2.7 NNW 11 17 6 9 1011.4 1011.4 0.0
25/08:00pm 25.6 27.5 21.3 77 2.8 N 13 20 7 11 1011.1 1011.1 0.0
25/07:30pm 25.7 27.5 21.8 79 2.6 N 15 20 8 11 1010.8 1010.8 0.0
25/07:00pm 25.7 27.3 21.4 77 2.9 N 15 20 8 11 1010.5 1010.5 0.0
25/06:30pm 25.7 27.3 21.4 77 2.8 N 15 20 8 11 1009.9 1009.9 0.0
25/06:00pm 25.8 27.3 21.2 76 3.0 N 15 22 8 12 1009.5 1009.5 0.0
25/05:30pm 26.0 27.4 21.0 74 3.3 N 15 24 8 13 1009.1 1009.1 0.0
25/05:00pm 26.4 27.3 20.9 72 3.6 N 17 24 9 13 1008.8 1008.8 0.0
25/04:30pm 26.8 27.2 20.9 70 3.9 N 20 28 11 15 1008.8 1008.8 0.0
25/04:00pm 27.1 27.1 20.9 69 4.1 N 22 30 12 16 1008.6 1008.6 0.0
25/03:30pm 27.3 27.1 20.6 67 4.4 N 22 30 12 16 1008.6 1008.6 0.0
25/03:00pm 27.5 27.3 20.6 66 4.6 N 22 30 12 16 1008.7 1008.7 0.0
25/02:30pm 27.8 28.0 21.3 67 4.3 N 22 30 12 16 1009.0 1009.0 0.0
25/02:00pm 27.8 28.0 21.3 67 4.3 N 22 32 12 17 1009.2 1009.2 0.0
25/01:30pm 27.8 27.4 20.9 66 4.6 N 24 32 13 17 1009.4 1009.4 0.0
25/01:00pm 27.7 27.6 20.8 66 4.6 N 22 32 12 17 1009.7 1009.7 0.0
25/12:30pm 28.1 28.3 21.4 67 4.5 N 22 30 12 16 1010.3 1010.3 0.0
25/12:00pm 27.6 28.3 21.2 68 4.3 N 19 28 10 15 1011.0 1011.0 0.0
25/11:30am 27.1 28.4 20.9 69 4.1 N 15 24 8 13 1011.3 1011.3 0.0
25/11:00am 27.2 27.4 20.5 67 4.4 N 20 26 11 14 1011.6 1011.6 0.0
25/10:30am 28.0 29.0 21.1 66 4.6 N 17 28 9 15 1011.9 1011.9 0.0
25/10:00am 27.0 28.6 20.8 69 4.1 N 13 19 7 10 1012.2 1012.2 0.0
25/09:30am 27.7 29.1 21.0 67 4.4 N 15 22 8 12 1012.1 1012.1 0.0
25/09:00am 27.5 28.5 21.1 68 4.2 N 17 24 9 13 1012.0 1012.0 9.8
25/08:30am 27.2 28.5 20.8 68 4.2 N 15 20 8 11 1012.0 1012.0 9.8
25/08:00am 26.8 28.0 20.6 69 4.1 N 15 20 8 11 1011.9 1011.9 9.8
25/07:30am 26.4 27.9 20.5 70 3.9 N 13 22 7 12 1011.4 1011.4 9.8
25/07:00am 25.7 27.9 20.5 73 3.4 NNW 9 17 5 9 1011.2 1011.2 9.8
25/06:30am 24.8 27.0 20.5 77 2.8 NNW 9 17 5 9 1010.8 1010.8 9.8
25/06:00am 24.4 26.1 20.1 77 2.8 NNW 11 17 6 9 1010.5 1010.5 9.8
25/05:30am 24.2 26.2 19.9 77 2.8 NNW 9 13 5 7 1010.1 1010.1 9.8
25/05:00am 24.2 26.2 19.9 77 2.8 NNW 9 15 5 8 1009.8 1009.8 9.8
25/04:30am 24.4 26.1 20.1 77 2.8 NNW 11 19 6 10 1009.5 1009.5 9.8
25/04:00am 24.5 26.5 20.0 76 2.9 NNW 9 17 5 9 1009.1 1009.1 9.8
25/03:30am 24.7 26.0 20.2 76 2.9 NNW 13 20 7 11 1009.0 1009.0 9.8
25/03:00am 24.8 26.8 20.7 78 2.7 NNW 11 17 6 9 1009.2 1009.2 9.8
25/02:30am 24.8 26.6 20.3 76 2.9 NNW 11 19 6 10 1009.5 1009.5 9.8
25/02:00am 24.8 26.2 20.3 76 2.9 NNW 13 19 7 10 1009.6 1009.6 9.8
25/01:30am 24.9 27.1 20.4 76 2.9 NNW 9 17 5 9 1009.8 1009.8 9.8
25/01:00am 24.9 26.7 20.4 76 2.9 NNW 11 19 6 10 1010.1 1010.1 9.8
25/12:30am 24.9 27.2 20.6 77 2.8 NNW 9 17 5 9 1010.5 1010.5 9.8
25/12:00am 25.1 26.9 20.4 75 3.1 NNW 11 19 6 10 1010.6 1010.6 9.8
 
Date/Time
EST
Temp
°C
App
Temp
°C
Dew
Point
°C
Rel
Hum
%
Delta-T
°C
Wind Press
QNH
hPa
Press
MSL
hPa
Rain since
9am
mm
Dir  Spd
km/h
Gust
km/h
Spd
kts
Gust
kts
24/11:30pm 25.3 27.2 20.5 75 3.1 NNW 11 20 6 11 1010.4 1010.4 9.8
24/11:00pm 25.5 26.5 21.0 76 3.0 N 17 26 9 14 1010.6 1010.6 9.8
24/10:30pm 25.4 26.5 21.3 78 2.7 N 17 24 9 13 1010.8 1010.8 9.8
24/10:00pm 25.4 26.4 21.1 77 2.8 N 17 28 9 15 1010.8 1010.8 9.8
24/09:30pm 25.3 26.3 21.0 77 2.8 N 17 26 9 14 1010.8 1010.8 9.8
24/09:00pm 25.6 26.5 21.5 78 2.7 N 19 26 10 14 1010.7 1010.7 9.8
24/08:30pm 25.5 26.1 21.0 76 3.0 N 19 28 10 15 1010.4 1010.4 9.8
24/08:00pm 25.6 26.2 21.3 77 2.8 N 20 28 11 15 1010.2 1010.2 9.8
24/07:30pm 25.6 26.4 21.3 77 2.8 N 19 28 10 15 1010.0 1010.0 9.8
24/07:00pm 25.6 26.2 21.1 76 3.0 N 19 26 10 14 1009.9 1009.9 9.8
24/06:30pm 25.6 26.1 21.1 76 3.0 N 20 28 11 15 1009.3 1009.3 9.8
24/06:00pm 25.7 25.8 21.1 76 3.0 N 22 32 12 17 1008.9 1008.9 9.8
24/05:30pm 25.9 25.8 20.7 73 3.4 N 22 30 12 16 1008.8 1008.8 9.8
24/05:00pm 26.3 26.8 21.1 73 3.4 N 20 28 11 15 1008.7 1008.7 9.8
24/04:30pm 26.5 25.8 20.3 68 4.1 NNE 24 28 13 15 1008.5 1008.5 9.8
24/04:00pm 26.6 25.9 20.2 68 4.2 NNE 24 30 13 16 1008.4 1008.4 9.8
24/03:30pm 27.0 25.9 20.3 66 4.4 NNE 26 30 14 16 1008.5 1008.5 9.8
24/03:00pm 27.9 28.4 21.2 67 4.5 N 20 28 11 15 1008.9 1008.9 9.8
24/02:30pm 27.5 27.5 20.1 64 4.8 N 20 28 11 15 1009.5 1009.5 9.8
24/02:00pm 28.0 27.9 20.0 61 5.2 N 20 28 11 15 1009.9 1009.9 9.8
24/01:30pm 27.9 27.9 20.2 63 5.0 N 20 28 11 15 1010.4 1010.4 9.8
24/01:00pm 27.9 27.5 20.2 63 5.1 N 22 28 12 15 1010.7 1010.7 9.8
24/12:30pm 28.6 28.8 21.4 65 4.8 N 22 28 12 15 1011.0 1011.0 9.8
24/12:00pm 28.2 28.1 20.7 63 5.0 N 22 30 12 16 1011.5 1011.5 0.0
24/11:30am 27.9 27.7 20.5 64 4.9 N 22 30 12 16 1012.0 1012.0 0.0
24/11:00am 28.3 28.2 20.8 63 5.0 NNE 22 28 12 15 1012.3 1012.3 0.0
24/10:30am 27.9 27.8 19.9 61 5.2 N 20 26 11 14 1012.7 1012.7 0.0
24/10:00am 28.1 27.9 20.6 63 4.9 NNE 22 26 12 14 1012.7 1012.7 0.0
24/09:30am 27.4 27.7 20.5 66 4.5 N 19 24 10 13 1012.9 1012.9 0.0
24/09:00am 27.5 27.6 20.3 65 4.7 NNE 20 24 11 13 1013.0 1013.0 0.0
24/08:30am 27.1 27.7 20.2 66 4.5 NNE 17 20 9 11 1012.9 1012.9 0.0
24/08:00am 26.7 27.4 20.5 69 4.1 NNE 17 20 9 11 1012.6 1012.6 0.0
24/07:30am 26.3 27.1 19.9 68 4.2 NNE 15 19 8 10 1012.4 1012.4 0.0
24/07:00am 25.5 26.3 19.9 71 3.6 N 15 19 8 10 1012.1 1012.1 0.0
24/06:30am 25.0 26.1 20.5 76 2.9 N 15 19 8 10 1011.7 1011.7 0.0
24/06:00am 24.6 26.8 20.3 77 2.8 N 9 15 5 8 1011.3 1011.3 0.0
24/05:30am 24.3 26.6 19.8 76 2.9 NNW 7 13 4 7 1011.1 1011.1 0.0
24/05:00am 24.5 26.1 20.0 76 2.9 N 11 17 6 9 1010.8 1010.8 0.0
24/04:30am 24.4 26.7 19.9 76 2.9 N 7 11 4 6 1010.4 1010.4 0.0
24/04:00am 24.6 25.8 20.7 79 2.6 N 15 20 8 11 1010.2 1010.2 0.0
24/03:30am 24.6 25.6 20.3 77 2.8 N 15 24 8 13 1010.1 1010.1 0.0
24/03:00am 24.6 26.0 20.3 77 2.8 N 13 19 7 10 1010.5 1010.5 0.0
24/02:30am 24.6 26.0 20.3 77 2.8 N 13 19 7 10 1010.5 1010.5 0.0
24/02:00am 24.8 25.5 20.5 77 2.8 N 17 24 9 13 1010.6 1010.6 0.0
24/01:30am 24.8 26.2 20.3 76 2.9 N 13 19 7 10 1011.0 1011.0 0.0
24/01:00am 24.7 24.7 19.8 74 3.2 N 19 28 10 15 1010.8 1010.8 0.0
24/12:30am 24.8 25.0 20.1 75 3.0 N 19 26 10 14 1010.8 1010.8 0.0
24/12:00am 24.8 24.8 19.8 74 3.2 N 19 26 10 14 1011.0 1011.0 0.0
 
Date/Time
EST
Temp
°C
App
Temp
°C
Dew
Point
°C
Rel
Hum
%
Delta-T
°C
Wind Press
QNH
hPa
Press
MSL
hPa
Rain since
9am
mm
Dir  Spd
km/h
Gust
km/h
Spd
kts
Gust
kts
23/11:30pm 25.0 25.3 20.5 76 2.9 N 19 28 10 15 1011.1 1011.1 0.0
23/11:00pm 25.1 24.8 20.4 75 3.1 N 22 28 12 15 1011.1 1011.1 0.0
23/10:30pm 25.1 24.5 20.6 76 2.9 NNE 24 30 13 16 1011.0 1011.0 0.0
23/10:00pm 25.1 24.9 20.6 76 2.9 NNE 22 26 12 14 1011.2 1011.2 0.0
23/09:30pm 25.2 24.8 20.2 74 3.3 N 22 28 12 15 1011.4 1011.4 0.0
23/09:00pm 25.2 25.6 20.7 76 3.0 N 19 26 10 14 1011.2 1011.2 0.0
23/08:30pm 25.2 26.2 21.7 81 2.3 N 19 24 10 13 1011.0 1011.0 0.0
23/08:00pm 25.1 25.8 21.2 79 2.6 N 19 24 10 13 1010.6 1010.6 0.0
23/07:30pm 25.1 25.8 21.2 79 2.6 N 19 24 10 13 1010.6 1010.6 0.0
23/07:00pm 25.2 25.5 21.5 80 2.5 NNE 22 26 12 14 1010.3 1010.3 0.0
23/06:30pm 25.1 25.2 21.2 79 2.6 NNE 22 28 12 15 1010.0 1010.0 0.0
23/06:00pm 25.4 25.7 21.5 79 2.6 NNE 22 26 12 14 1009.8 1009.8 0.0
23/05:30pm 25.4 24.4 20.4 74 3.3 NNE 26 28 14 15 1009.5 1009.5 0.0
23/05:00pm 25.6 24.1 19.5 69 3.9 NNE 26 30 14 16 1009.3 1009.3 0.0
23/04:30pm 25.8 24.2 19.2 67 4.2 NNE 26 30 14 16 1009.2 1009.2 0.0
23/04:00pm 26.1 24.7 18.8 64 4.7 NE 24 26 13 14 1009.2 1009.2 0.0
23/03:30pm 26.2 25.5 18.6 63 4.8 NE 20 26 11 14 1009.3 1009.3 0.0
23/03:00pm 26.1 25.2 19.0 65 4.6 NE 22 26 12 14 1009.5 1009.5 0.0
23/02:30pm 26.4 25.9 19.0 63 4.7 NE 20 24 11 13 1009.9 1009.9 0.0
23/02:00pm 26.8 26.4 19.4 64 4.8 NE 20 22 11 12 1010.3 1010.3 0.0

Other Formats:

Comma delimited format used in spreadsheet applications
http://www.bom.gov.au/fwo/IDQ60801/IDQ60801.95296.axf

JavaScript Object Notation format (JSON) in row-major order
http://www.bom.gov.au/fwo/IDQ60801/IDQ60801.95296.json